Time;durP1;ratioP1;P1;durP2;ratioP2;P2;SDS_P1;SDS_P2;PMS_P1;PMS_P2;Temp;Humidity;BMP_temperature;BMP_pressure;BME280_temperature;BME280_humidity;BME280_pressure;Samples;Min_cycle;Max_cycle;Signal;HPM_P1;HPM_P2
2021/07/07 00:02:07;;;;;;;4.50;4.10;;;24.50;77.80;;;;;;5063064;28;20783;-63
2021/07/07 00:04:34;;;;;;;7.93;4.37;;;24.50;77.80;;;;;;5062820;28;20214;-63
2021/07/07 00:07:01;;;;;;;5.77;4.90;;;24.50;77.80;;;;;;5064087;28;20213;-63
2021/07/07 00:09:28;;;;;;;5.37;4.90;;;24.50;78.10;;;;;;5065086;28;20298;-63
2021/07/07 00:11:55;;;;;;;6.27;5.67;;;24.40;78.10;;;;;;5063740;28;20218;-63
2021/07/07 00:14:22;;;;;;;5.10;4.70;;;24.40;78.60;;;;;;5064210;28;20296;-63
2021/07/07 00:16:49;;;;;;;5.17;4.70;;;24.30;78.50;;;;;;5060138;28;20234;-63
2021/07/07 00:19:16;;;;;;;6.50;5.93;;;24.20;78.60;;;;;;5062220;28;20210;-63
2021/07/07 00:21:43;;;;;;;6.17;5.67;;;24.20;79.10;;;;;;5063864;28;20580;-63
2021/07/07 00:24:11;;;;;;;6.17;5.37;;;24.10;79.40;;;;;;5064773;28;20577;-63
2021/07/07 00:26:39;;;;;;;6.77;6.17;;;24.10;79.70;;;;;;5062393;28;20233;-63
2021/07/07 00:29:06;;;;;;;7.97;5.50;;;24.10;80.10;;;;;;5063252;28;20214;-63
2021/07/07 00:31:33;;;;;;;6.30;5.70;;;24.00;80.20;;;;;;5064714;28;20600;-63
2021/07/07 00:34:00;;;;;;;7.20;6.50;;;24.00;80.40;;;;;;5062443;28;20719;-63
2021/07/07 00:36:27;;;;;;;8.10;5.23;;;24.00;80.70;;;;;;5063484;28;20218;-63
2021/07/07 00:38:54;;;;;;;5.03;4.63;;;24.00;80.60;;;;;;5064716;28;20592;-63
2021/07/07 00:41:21;;;;;;;6.00;5.33;;;24.00;80.50;;;;;;5065790;28;20238;-63
2021/07/07 00:43:48;;;;;;;6.80;6.30;;;24.00;80.30;;;;;;5063114;28;20240;-63
2021/07/07 00:46:15;;;;;;;6.43;5.93;;;23.90;80.60;;;;;;5062668;28;20218;-63
2021/07/07 00:48:43;;;;;;;6.60;6.00;;;23.80;80.90;;;;;;5062194;28;20652;-63
2021/07/07 00:51:14;;;;;;;7.17;6.00;;;23.80;81.30;;;;;;5064626;28;20229;-63
2021/07/07 00:53:43;;;;;;;6.63;6.03;;;23.70;81.70;;;;;;5061937;28;20217;-63
2021/07/07 00:56:10;;;;;;;6.43;5.83;;;23.70;81.70;;;;;;5062940;28;20620;-63
2021/07/07 00:58:37;;;;;;;5.83;5.40;;;23.70;81.60;;;;;;5061803;28;20222;-63
2021/07/07 01:01:06;;;;;;;6.50;5.40;;;23.70;81.40;;;;;;5061773;28;20222;-63
2021/07/07 01:03:33;;;;;;;9.60;5.43;;;23.70;81.30;;;;;;5063130;28;20213;-63
2021/07/07 01:06:00;;;;;;;7.10;6.40;;;23.70;81.20;;;;;;5064609;28;20220;-63
2021/07/07 01:08:39;;;;;;;8.77;7.93;;;23.60;81.20;;;;;;5062349;28;20283;-63
2021/07/07 01:11:06;;;;;;;9.57;8.70;;;23.50;81.80;;;;;;5064172;28;20655;-63
2021/07/07 01:13:33;;;;;;;9.27;8.37;;;23.40;82.90;;;;;;5064271;28;20214;-63
2021/07/07 01:16:04;;;;;;;8.23;7.53;;;23.40;83.50;;;;;;5061208;28;20210;-63
2021/07/07 01:18:31;;;;;;;9.80;7.70;;;23.40;83.90;;;;;;5062072;28;20284;-63
2021/07/07 01:20:58;;;;;;;9.40;8.50;;;23.40;83.60;;;;;;5060585;28;20268;-63
2021/07/07 01:23:26;;;;;;;7.87;7.20;;;23.40;84.00;;;;;;5064206;28;20564;-63
2021/07/07 01:25:53;;;;;;;8.07;7.37;;;23.40;84.20;;;;;;5061522;28;20214;-63
2021/07/07 01:28:20;;;;;;;8.47;7.70;;;23.40;84.30;;;;;;5063694;28;20221;-63
2021/07/07 01:30:47;;;;;;;8.30;7.63;;;23.30;84.30;;;;;;5061029;28;20651;-63
2021/07/07 01:33:14;;;;;;;8.77;8.07;;;23.30;84.50;;;;;;5063804;28;20218;-63
2021/07/07 01:35:42;;;;;;;9.20;8.30;;;23.30;84.70;;;;;;5063604;28;20201;-63
2021/07/07 01:38:09;;;;;;;7.50;6.90;;;23.20;84.90;;;;;;5060273;28;20272;-63
2021/07/07 01:40:36;;;;;;;8.60;7.70;;;23.30;84.90;;;;;;5061490;28;20211;-63
2021/07/07 01:43:03;;;;;;;8.70;7.93;;;23.20;84.80;;;;;;5062733;28;20290;-63
2021/07/07 01:45:30;;;;;;;8.60;7.90;;;23.20;85.20;;;;;;5064146;28;20270;-63
2021/07/07 01:47:57;;;;;;;8.57;7.70;;;23.20;85.90;;;;;;5061518;28;20222;-63
2021/07/07 01:50:25;;;;;;;9.13;8.20;;;23.20;84.80;;;;;;5062224;28;20230;-63
2021/07/07 01:52:55;;;;;;;8.87;8.07;;;23.20;84.80;;;;;;5068865;28;20202;-63
2021/07/07 01:55:22;;;;;;;8.00;7.30;;;23.20;84.90;;;;;;5062164;28;20210;-63
2021/07/07 01:57:49;;;;;;;7.83;7.23;;;23.20;84.50;;;;;;5061780;28;20225;-63
2021/07/07 02:00:22;;;;;;;7.90;7.30;;;23.20;84.10;;;;;;5063793;28;20528;-63
2021/07/07 02:02:50;;;;;;;15.30;7.00;;;23.20;83.90;;;;;;5062931;28;20448;-63
2021/07/07 02:05:19;;;;;;;9.90;7.60;;;23.20;83.80;;;;;;5064000;28;20225;-63
2021/07/07 02:07:46;;;;;;;7.47;6.87;;;23.20;83.60;;;;;;5063863;28;20217;-63
2021/07/07 02:10:15;;;;;;;8.77;7.97;;;23.10;83.60;;;;;;5067092;28;20273;-63
2021/07/07 02:12:43;;;;;;;7.07;6.37;;;23.10;83.50;;;;;;5065090;28;20210;-63
2021/07/07 02:15:12;;;;;;;7.77;7.07;;;23.10;83.40;;;;;;5068657;28;20262;-63
2021/07/07 02:17:42;;;;;;;9.57;7.93;;;23.10;83.20;;;;;;5063593;28;20570;-63
2021/07/07 02:20:11;;;;;;;8.30;7.47;;;23.00;83.30;;;;;;5065349;28;20306;-63
2021/07/07 02:22:39;;;;;;;8.43;7.73;;;23.00;83.40;;;;;;5068387;28;20217;-63
2021/07/07 02:25:11;;;;;;;9.90;8.00;;;23.00;83.50;;;;;;5064775;28;20218;-63
2021/07/07 02:27:38;;;;;;;10.13;9.13;;;23.00;83.60;;;;;;5065681;28;20315;-63
2021/07/07 02:30:08;;;;;;;8.37;7.73;;;23.00;83.70;;;;;;5067616;28;20295;-63
2021/07/07 02:32:36;;;;;;;8.23;7.27;;;22.90;83.30;;;;;;5066136;28;20205;-63
2021/07/07 02:35:06;;;;;;;7.70;7.00;;;22.70;82.60;;;;;;5066655;28;20569;-63
2021/07/07 02:37:33;;;;;;;11.47;7.83;;;22.60;82.50;;;;;;5064705;28;20275;-63
2021/07/07 02:40:01;;;;;;;10.40;8.17;;;22.50;83.00;;;;;;5065497;28;20278;-63
2021/07/07 02:42:28;;;;;;;8.10;7.30;;;22.40;83.60;;;;;;5063317;28;20287;-63
2021/07/07 02:44:55;;;;;;;9.27;8.37;;;22.40;83.90;;;;;;5066392;28;20275;-63
2021/07/07 02:47:22;;;;;;;8.63;7.77;;;22.40;84.30;;;;;;5062805;28;20237;-63
2021/07/07 02:49:49;;;;;;;9.77;8.83;;;22.50;84.70;;;;;;5063414;28;20214;-63
2021/07/07 02:52:17;;;;;;;10.30;8.47;;;22.50;84.80;;;;;;5066419;28;20250;-63
2021/07/07 02:54:43;;;;;;;10.43;8.87;;;22.50;85.00;;;;;;5065912;28;20217;-63
2021/07/07 02:57:10;;;;;;;9.77;8.90;;;22.60;85.00;;;;;;5062882;28;20226;-63
2021/07/07 02:59:37;;;;;;;9.93;8.43;;;22.60;85.00;;;;;;5066314;28;20210;-63
2021/07/07 03:02:04;;;;;;;9.60;8.70;;;22.60;85.00;;;;;;5065615;28;20330;-63
2021/07/07 03:04:31;;;;;;;10.63;9.10;;;22.60;85.20;;;;;;5063869;28;20222;-63
2021/07/07 03:06:58;;;;;;;11.00;10.00;;;22.50;85.30;;;;;;5066020;28;20267;-63
2021/07/07 03:09:25;;;;;;;9.73;8.70;;;22.50;85.50;;;;;;5065340;28;20549;-63
2021/07/07 03:11:52;;;;;;;10.23;9.27;;;22.40;85.30;;;;;;5065492;28;20230;-63
2021/07/07 03:14:19;;;;;;;10.90;9.80;;;22.40;85.20;;;;;;5066243;28;20556;-63
2021/07/07 03:16:46;;;;;;;9.97;9.07;;;22.30;84.80;;;;;;5064978;28;20238;-63
2021/07/07 03:19:13;;;;;;;11.53;10.37;;;22.30;85.00;;;;;;5058910;28;20214;-63
2021/07/07 03:21:40;;;;;;;11.13;10.13;;;22.20;85.60;;;;;;5065924;28;20217;-63
2021/07/07 03:24:09;;;;;;;11.53;10.43;;;22.10;86.00;;;;;;5065189;28;20550;-63
2021/07/07 03:26:36;;;;;;;10.87;9.77;;;22.10;86.30;;;;;;5063603;28;20284;-63
2021/07/07 03:29:03;;;;;;;15.23;12.83;;;22.00;86.10;;;;;;5065557;28;20213;-63
2021/07/07 03:31:30;;;;;;;14.47;13.07;;;22.00;86.70;;;;;;5062274;28;20246;-63
2021/07/07 03:33:57;;;;;;;17.27;12.70;;;22.00;87.50;;;;;;5066071;28;20210;-63
2021/07/07 03:36:24;;;;;;;11.83;10.90;;;22.00;87.80;;;;;;5064055;28;20280;-63
2021/07/07 03:38:51;;;;;;;10.83;9.60;;;22.00;87.50;;;;;;5063852;28;20222;-63
2021/07/07 03:41:18;;;;;;;11.57;10.50;;;22.10;86.90;;;;;;5065801;28;20225;-63
2021/07/07 03:43:45;;;;;;;11.73;9.90;;;22.10;86.50;;;;;;5063930;28;20766;-63
2021/07/07 03:46:12;;;;;;;11.40;10.30;;;22.20;86.30;;;;;;5063904;28;20219;-63
2021/07/07 03:48:39;;;;;;;11.07;10.07;;;22.20;86.00;;;;;;5065542;28;20270;-63
2021/07/07 03:51:06;;;;;;;10.13;9.33;;;22.20;85.70;;;;;;5061711;28;20241;-63
2021/07/07 03:53:33;;;;;;;10.13;8.37;;;22.30;85.30;;;;;;5065047;28;20639;-63
2021/07/07 03:56:00;;;;;;;8.73;7.90;;;22.30;84.90;;;;;;5062688;28;20599;-63
2021/07/07 03:58:27;;;;;;;9.83;8.93;;;22.30;84.50;;;;;;5064741;28;20217;-63
2021/07/07 04:00:54;;;;;;;9.70;8.80;;;22.20;84.40;;;;;;5063287;28;20535;-63
2021/07/07 04:03:21;;;;;;;10.13;9.23;;;22.30;84.60;;;;;;5066240;28;20218;-63
2021/07/07 04:05:48;;;;;;;11.67;8.57;;;22.20;84.40;;;;;;5064703;28;20581;-63
2021/07/07 04:08:15;;;;;;;9.00;8.20;;;22.20;84.40;;;;;;5064663;28;20612;-63
2021/07/07 04:10:42;;;;;;;11.40;10.33;;;22.30;84.50;;;;;;5062389;28;20249;-63
2021/07/07 04:13:09;;;;;;;12.00;10.77;;;22.30;84.60;;;;;;5066023;28;20207;-63
2021/07/07 04:15:36;;;;;;;10.73;9.73;;;22.40;84.80;;;;;;5063284;28;20224;-63
2021/07/07 04:18:04;;;;;;;13.87;11.20;;;22.40;84.60;;;;;;5064670;28;20241;-63
2021/07/07 04:20:31;;;;;;;13.07;11.77;;;22.30;84.60;;;;;;5062029;28;20218;-63
2021/07/07 04:22:58;;;;;;;13.03;11.73;;;22.30;84.80;;;;;;5062986;28;20268;-63
2021/07/07 04:25:34;;;;;;;12.63;11.43;;;22.20;85.20;;;;;;5064092;28;20226;-63
2021/07/07 04:28:01;;;;;;;11.43;10.47;;;22.30;85.60;;;;;;5063686;28;20290;-63
2021/07/07 04:30:28;;;;;;;13.23;11.93;;;22.40;85.60;;;;;;5062326;28;20275;-63
2021/07/07 04:32:55;;;;;;;12.70;11.57;;;22.50;86.10;;;;;;5064145;28;20907;-63
2021/07/07 04:35:22;;;;;;;11.87;10.77;;;22.50;85.40;;;;;;5064500;28;20245;-63
2021/07/07 04:37:50;;;;;;;12.13;10.47;;;22.60;85.30;;;;;;5062166;28;20276;-63
2021/07/07 04:40:22;;;;;;;10.83;9.93;;;22.70;85.00;;;;;;5063314;28;20213;-63
2021/07/07 04:42:51;;;;;;;12.07;10.77;;;22.90;85.10;;;;;;5064686;28;20217;-63
2021/07/07 04:45:18;;;;;;;13.03;11.00;;;23.00;84.70;;;;;;5062958;28;20268;-63
2021/07/07 04:47:45;;;;;;;15.17;13.83;;;23.10;84.40;;;;;;5063056;28;20226;-63
2021/07/07 04:50:15;;;;;;;12.70;11.57;;;23.20;84.40;;;;;;5061142;28;20218;-63
2021/07/07 04:52:43;;;;;;;13.97;12.67;;;23.30;84.40;;;;;;5060883;28;20299;-63
2021/07/07 04:55:12;;;;;;;14.07;12.70;;;23.50;84.10;;;;;;5064441;28;20217;-63
2021/07/07 04:57:42;;;;;;;14.63;13.13;;;23.60;83.80;;;;;;5060780;28;20214;-63
2021/07/07 05:00:20;;;;;;;15.97;14.47;;;23.80;83.70;;;;;;5064052;28;20209;-63
2021/07/07 05:02:49;;;;;;;16.17;14.57;;;23.90;83.70;;;;;;5063058;28;20222;-63
2021/07/07 05:05:18;;;;;;;15.10;13.73;;;24.00;83.40;;;;;;5061875;28;20225;-63
2021/07/07 05:07:46;;;;;;;16.57;14.87;;;24.20;83.20;;;;;;5062119;28;20581;-63
2021/07/07 05:10:14;;;;;;;16.67;15.00;;;24.40;83.00;;;;;;5062685;28;20217;-63
2021/07/07 05:12:42;;;;;;;15.73;14.43;;;24.50;82.60;;;;;;5064784;28;20230;-63
2021/07/07 05:15:12;;;;;;;16.60;15.10;;;24.70;82.20;;;;;;5063159;28;20604;-64
2021/07/07 05:17:40;;;;;;;15.87;14.57;;;24.80;81.90;;;;;;5063986;28;20246;-64
2021/07/07 05:20:08;;;;;;;16.97;15.37;;;24.90;81.80;;;;;;5060656;28;20313;-64
2021/07/07 05:22:35;;;;;;;16.67;15.13;;;25.00;81.60;;;;;;5062968;28;20222;-64
2021/07/07 05:25:03;;;;;;;15.13;13.73;;;25.00;81.40;;;;;;5061467;28;20214;-64
2021/07/07 05:27:34;;;;;;;15.73;14.20;;;25.10;81.10;;;;;;5070189;28;20219;-64
2021/07/07 05:30:01;;;;;;;16.20;14.50;;;25.20;80.90;;;;;;5060281;28;20632;-64
2021/07/07 05:32:28;;;;;;;14.13;12.83;;;25.30;80.50;;;;;;5064095;28;20241;-64
2021/07/07 05:34:56;;;;;;;13.13;11.90;;;25.40;80.30;;;;;;5062271;28;20214;-64
2021/07/07 05:37:24;;;;;;;10.43;9.40;;;25.50;79.90;;;;;;5061841;28;20233;-64
2021/07/07 05:39:52;;;;;;;11.93;9.97;;;25.70;78.90;;;;;;5066378;28;20209;-64
2021/07/07 05:42:21;;;;;;;12.80;9.70;;;25.80;78.20;;;;;;5066744;28;20229;-64
2021/07/07 05:44:53;;;;;;;10.53;9.43;;;26.00;77.60;;;;;;5065168;28;20276;-64
2021/07/07 05:47:21;;;;;;;11.23;9.90;;;26.30;76.60;;;;;;5067306;28;20210;-64
2021/07/07 05:49:49;;;;;;;12.67;11.23;;;26.50;75.50;;;;;;5066745;28;20249;-64
2021/07/07 05:52:16;;;;;;;12.30;10.97;;;26.70;74.70;;;;;;5065174;28;20249;-64
2021/07/07 05:54:43;;;;;;;14.33;11.37;;;26.90;74.30;;;;;;5066886;28;20202;-64
2021/07/07 05:57:10;;;;;;;12.87;11.57;;;27.00;74.00;;;;;;5065374;28;20214;-64
2021/07/07 05:59:37;;;;;;;11.93;10.80;;;27.10;73.60;;;;;;5064950;28;20214;-64
2021/07/07 06:02:04;;;;;;;12.43;10.67;;;27.30;73.30;;;;;;5066426;28;20220;-64
2021/07/07 06:04:31;;;;;;;10.47;9.57;;;27.40;72.80;;;;;;5067514;28;20214;-64
2021/07/07 06:06:58;;;;;;;11.53;10.40;;;27.60;72.30;;;;;;5064955;28;20232;-64
2021/07/07 06:09:24;;;;;;;13.50;11.60;;;27.70;72.50;;;;;;5066587;28;20213;-64
2021/07/07 06:11:52;;;;;;;15.33;11.47;;;27.80;71.30;;;;;;5066233;28;20249;-64
2021/07/07 06:14:19;;;;;;;13.27;11.90;;;27.70;71.10;;;;;;5064030;28;20221;-64
2021/07/07 06:16:46;;;;;;;12.13;11.03;;;27.70;70.90;;;;;;5065211;28;20240;-64
2021/07/07 06:19:13;;;;;;;10.97;9.87;;;27.60;70.90;;;;;;5063041;28;20228;-64
2021/07/07 06:21:40;;;;;;;12.80;11.60;;;27.60;71.40;;;;;;5069079;28;20659;-64
2021/07/07 06:24:08;;;;;;;11.07;10.07;;;27.70;70.70;;;;;;5066825;28;20222;-64
2021/07/07 06:26:35;;;;;;;12.07;10.40;;;27.70;70.80;;;;;;5067283;28;20240;-64
2021/07/07 06:29:04;;;;;;;12.33;10.07;;;27.90;70.60;;;;;;5064698;28;20659;-64
2021/07/07 06:31:35;;;;;;;10.50;9.43;;;28.00;70.20;;;;;;5065761;28;20247;-64
2021/07/07 06:34:02;;;;;;;13.17;9.70;;;28.20;69.90;;;;;;5067229;28;20236;-64
2021/07/07 06:36:29;;;;;;;12.00;10.33;;;28.50;69.40;;;;;;5063526;28;20228;-64
2021/07/07 06:38:56;;;;;;;11.27;10.20;;;28.60;68.50;;;;;;5066820;28;20217;-64
2021/07/07 06:41:23;;;;;;;11.83;10.37;;;28.70;67.70;;;;;;5067825;28;20213;-64
2021/07/07 06:43:50;;;;;;;13.33;10.97;;;28.90;67.30;;;;;;5065526;28;20234;-64
2021/07/07 06:46:17;;;;;;;12.07;10.80;;;29.00;67.00;;;;;;5064589;28;20226;-64
2021/07/07 06:48:44;;;;;;;12.83;11.53;;;29.10;66.60;;;;;;5063142;28;20619;-64
2021/07/07 06:51:11;;;;;;;17.73;11.70;;;29.30;66.10;;;;;;5065101;28;20226;-64
2021/07/07 06:53:38;;;;;;;13.63;11.37;;;29.50;65.60;;;;;;5065040;28;20210;-64
2021/07/07 06:56:05;;;;;;;12.80;11.60;;;29.70;65.10;;;;;;5067141;28;20217;-64
2021/07/07 06:58:32;;;;;;;13.40;12.17;;;29.90;64.70;;;;;;5065371;28;20218;-64
2021/07/07 07:00:59;;;;;;;14.37;12.60;;;29.90;63.60;;;;;;5064177;28;20225;-64
2021/07/07 07:03:27;;;;;;;13.57;10.97;;;29.80;63.50;;;;;;5065671;28;20589;-64
2021/07/07 07:05:54;;;;;;;11.33;10.20;;;29.90;63.70;;;;;;5064633;28;20304;-64
2021/07/07 07:08:21;;;;;;;14.50;10.90;;;29.90;63.20;;;;;;5063718;28;20210;-64
2021/07/07 07:10:48;;;;;;;14.20;10.27;;;30.00;62.60;;;;;;5063510;28;20214;-64
2021/07/07 07:13:15;;;;;;;11.73;10.67;;;30.20;62.60;;;;;;5067283;28;20237;-64
2021/07/07 07:15:46;;;;;;;11.43;10.07;;;30.50;61.80;;;;;;5063581;28;20214;-64
2021/07/07 07:18:15;;;;;;;13.53;10.37;;;30.60;61.10;;;;;;5063390;28;20303;-64
2021/07/07 07:20:42;;;;;;;11.77;9.90;;;30.80;60.50;;;;;;5063136;28;20572;-64
2021/07/07 07:23:09;;;;;;;14.37;10.87;;;31.00;60.30;;;;;;5063205;28;20531;-64
2021/07/07 07:25:36;;;;;;;13.00;9.77;;;31.20;60.00;;;;;;5065743;28;20220;-64
2021/07/07 07:28:04;;;;;;;14.73;9.83;;;31.50;59.70;;;;;;5065656;28;20218;-64
2021/07/07 07:30:31;;;;;;;12.63;11.23;;;31.60;58.70;;;;;;5063586;28;20218;-66
2021/07/07 07:32:59;;;;;;;11.37;10.20;;;31.70;58.00;;;;;;5064860;28;20252;-66
2021/07/07 07:35:26;;;;;;;10.60;9.33;;;31.70;58.00;;;;;;5065703;28;20578;-66
2021/07/07 07:38:02;;;;;;;12.23;10.40;;;31.60;58.00;;;;;;5063163;28;20215;-66
2021/07/07 07:43:06;;;;;;;11.00;9.07;;;31.60;58.10;;;;;;5063836;28;20210;-66
2021/07/07 07:45:33;;;;;;;18.63;9.87;;;31.60;57.80;;;;;;5063175;28;20229;-65
2021/07/07 07:48:01;;;;;;;12.37;9.17;;;31.90;56.70;;;;;;5062766;28;20268;-65
2021/07/07 07:50:29;;;;;;;10.27;9.27;;;31.90;57.40;;;;;;5059710;28;20249;-66
2021/07/07 07:52:56;;;;;;;17.40;8.93;;;32.10;57.20;;;;;;5065746;28;20242;-66
2021/07/07 07:55:23;;;;;;;9.53;8.67;;;32.10;56.70;;;;;;5064903;28;20261;-65
2021/07/07 07:57:51;;;;;;;17.27;8.50;;;32.30;56.60;;;;;;5064514;28;20726;-65
2021/07/07 08:00:23;;;;;;;12.67;8.43;;;32.40;55.80;;;;;;5062690;28;20297;-66
2021/07/07 08:02:50;;;;;;;10.10;8.47;;;32.50;55.70;;;;;;5063544;28;20217;-66
2021/07/07 08:05:19;;;;;;;9.10;8.30;;;32.70;55.50;;;;;;5065227;28;20222;-66
2021/07/07 08:07:47;;;;;;;13.63;9.33;;;32.90;55.10;;;;;;5062839;28;20218;-66
2021/07/07 08:10:19;;;;;;;10.47;8.93;;;33.00;54.20;;;;;;5063974;28;20250;-66
2021/07/07 08:12:48;;;;;;;13.00;9.47;;;33.00;54.40;;;;;;5066264;28;20226;-66
2021/07/07 08:15:17;;;;;;;11.77;8.43;;;33.00;54.30;;;;;;5063909;28;20210;-66
2021/07/07 08:17:46;;;;;;;9.27;8.37;;;33.20;54.20;;;;;;5064995;28;20637;-66
2021/07/07 08:20:13;;;;;;;8.90;7.93;;;33.30;54.30;;;;;;5057093;28;20218;-66
2021/07/07 08:22:41;;;;;;;11.60;8.13;;;33.50;53.40;;;;;;5064398;28;20259;-66
2021/07/07 08:25:10;;;;;;;7.63;6.90;;;33.60;53.40;;;;;;5062262;28;20211;-66
2021/07/07 08:27:37;;;;;;;11.07;7.30;;;33.70;52.90;;;;;;5064225;28;20217;-66
2021/07/07 08:30:08;;;;;;;11.77;7.67;;;33.70;52.80;;;;;;5064571;28;20225;-66
2021/07/07 08:32:35;;;;;;;12.13;8.17;;;33.90;52.60;;;;;;5062344;28;20319;-66
2021/07/07 08:35:03;;;;;;;12.03;7.60;;;34.00;52.00;;;;;;5063367;28;20462;-66
2021/07/07 08:37:31;;;;;;;9.93;6.37;;;34.10;51.90;;;;;;5064817;28;20209;-66
2021/07/07 08:39:58;;;;;;;11.47;7.20;;;34.20;51.70;;;;;;5062420;28;20207;-66
2021/07/07 08:42:25;;;;;;;8.80;6.53;;;34.40;51.30;;;;;;5063181;28;20291;-66
2021/07/07 08:44:53;;;;;;;7.77;6.53;;;34.50;50.20;;;;;;5064765;28;20251;-66
2021/07/07 08:47:20;;;;;;;8.77;7.27;;;34.40;50.50;;;;;;5062657;28;20225;-66
2021/07/07 08:49:47;;;;;;;7.83;6.60;;;34.40;50.00;;;;;;5064827;28;20214;-66
2021/07/07 08:52:17;;;;;;;10.33;5.40;;;34.50;49.50;;;;;;5061358;28;20394;-65
2021/07/07 08:54:47;;;;;;;9.77;5.20;;;34.30;49.60;;;;;;5062842;28;20210;-66
2021/07/07 08:57:14;;;;;;;9.80;5.70;;;34.30;50.10;;;;;;5062020;28;20207;-66
2021/07/07 08:59:41;;;;;;;7.00;5.10;;;34.40;49.60;;;;;;5064140;28;20210;-66
2021/07/07 09:02:08;;;;;;;6.00;5.10;;;34.50;49.40;;;;;;5063341;28;20214;-66
2021/07/07 09:04:46;;;;;;;6.40;5.30;;;34.50;49.10;;;;;;5061689;28;20214;-66
2021/07/07 09:07:18;;;;;;;11.47;5.03;;;34.50;49.70;;;;;;5062606;28;20233;-66
2021/07/07 09:09:47;;;;;;;6.73;5.13;;;34.70;48.60;;;;;;5064022;28;20540;-66
2021/07/07 09:12:29;;;;;;;6.83;5.73;;;34.90;48.40;;;;;;5065408;28;20232;-66
2021/07/07 09:15:08;;;;;;;5.53;4.70;;;35.10;47.80;;;;;;5062261;28;20214;-66
2021/07/07 09:17:41;;;;;;;8.33;4.00;;;35.10;47.90;;;;;;5061387;28;20242;-66
2021/07/07 09:20:34;;;;;;;5.77;4.40;;;35.30;47.90;;;;;;5061250;28;20524;-66
2021/07/07 09:23:20;;;;;;;5.73;4.40;;;35.50;47.10;;;;;;5064210;28;20232;-66
2021/07/07 09:25:55;;;;;;;8.20;4.43;;;35.60;46.90;;;;;;5064330;28;20715;-65
2021/07/07 09:28:36;;;;;;;6.07;3.60;;;35.70;46.20;;;;;;5059268;28;20214;-66
2021/07/07 09:31:25;;;;;;;4.73;3.50;;;35.80;45.60;;;;;;5062747;28;20214;-66
2021/07/07 09:33:52;;;;;;;3.73;3.40;;;36.00;46.10;;;;;;5062900;28;20233;-66
2021/07/07 09:36:24;;;;;;;14.80;8.30;;;36.20;45.20;;;;;;5057613;28;20202;-66
2021/07/07 09:38:53;;;;;;;6.63;4.30;;;36.40;43.80;;;;;;5062573;28;20220;-66
2021/07/07 09:41:21;;;;;;;8.10;4.43;;;36.50;43.30;;;;;;5064026;28;20210;-66
2021/07/07 09:43:53;;;;;;;4.73;3.30;;;36.50;43.00;;;;;;5061704;28;20222;-66
2021/07/07 09:46:22;;;;;;;4.80;3.27;;;36.40;42.20;;;;;;5061751;28;20225;-66
2021/07/07 09:48:51;;;;;;;2.77;2.57;;;36.30;42.20;;;;;;5061459;28;20261;-66
2021/07/07 09:51:19;;;;;;;4.50;3.10;;;36.40;41.40;;;;;;5062200;28;20210;-66
2021/07/07 09:53:46;;;;;;;6.10;5.50;;;36.50;42.00;;;;;;5063727;28;20282;-66
2021/07/07 09:56:13;;;;;;;4.30;3.90;;;36.70;43.00;;;;;;5061830;28;20221;-66
2021/07/07 09:58:40;;;;;;;4.87;3.83;;;36.70;42.50;;;;;;5062044;28;20217;-66
2021/07/07 10:04:46;;;;;;;7.23;4.80;;;36.40;43.50;;;;;;5063998;28;20542;-66
2021/07/07 10:07:14;;;;;;;12.27;4.63;;;36.10;41.90;;;;;;5061478;28;20225;-66
2021/07/07 10:09:45;;;;;;;3.30;3.00;;;36.00;44.10;;;;;;5062176;28;20211;-66
2021/07/07 10:12:13;;;;;;;7.03;3.60;;;36.10;43.60;;;;;;5064620;28;20237;-66
2021/07/07 10:14:41;;;;;;;5.27;3.30;;;36.20;43.60;;;;;;5062838;28;20209;-66
2021/07/07 10:17:09;;;;;;;3.00;2.80;;;36.30;42.30;;;;;;5063493;28;20265;-65
2021/07/07 10:19:37;;;;;;;4.30;2.90;;;36.30;41.50;;;;;;5060624;28;20207;-66
2021/07/07 10:22:04;;;;;;;3.07;2.77;;;36.50;41.70;;;;;;5060716;28;20210;-66
2021/07/07 10:24:34;;;;;;;5.17;2.53;;;36.70;41.20;;;;;;5060709;28;20207;-66
2021/07/07 10:27:05;;;;;;;4.87;3.00;;;36.70;40.20;;;;;;5065127;28;20275;-66
2021/07/07 10:29:34;;;;;;;3.47;3.17;;;36.50;41.70;;;;;;5067179;28;20224;-66
2021/07/07 10:32:07;;;;;;;3.13;2.87;;;36.60;41.00;;;;;;5064716;28;20242;-66
2021/07/07 10:34:37;;;;;;;3.77;2.63;;;36.60;40.20;;;;;;5064710;28;20218;-66
2021/07/07 10:37:04;;;;;;;3.13;2.40;;;36.80;40.00;;;;;;5064737;28;20210;-66
2021/07/07 10:39:32;;;;;;;2.60;2.37;;;37.00;40.40;;;;;;5065519;28;20559;-66
2021/07/07 10:42:04;;;;;;;4.53;2.60;;;37.20;40.20;;;;;;5067056;28;20209;-66
2021/07/07 10:44:40;;;;;;;2.60;2.40;;;37.40;39.00;;;;;;5065531;28;20214;-65
2021/07/07 10:47:12;;;;;;;3.37;3.00;;;37.40;38.50;;;;;;5064559;28;20563;-65
2021/07/07 10:49:47;;;;;;;2.90;2.37;;;37.40;39.10;;;;;;5066775;28;20214;-68
2021/07/07 10:52:17;;;;;;;4.50;2.50;;;37.30;38.60;;;;;;5064882;28;20206;-68
2021/07/07 10:54:58;;;;;;;3.83;3.00;;;37.30;38.50;;;;;;5064846;28;20539;-67
2021/07/07 10:57:35;;;;;;;6.60;2.43;;;37.20;38.60;;;;;;5065709;28;20201;-65
2021/07/07 11:00:21;;;;;;;5.07;2.47;;;37.10;37.90;;;;;;5064358;28;20214;-65
2021/07/07 11:02:48;;;;;;;3.03;2.23;;;37.00;38.80;;;;;;5064446;28;20211;-65
2021/07/07 11:05:25;;;;;;;3.20;2.40;;;37.20;38.60;;;;;;5064901;28;20311;-65
2021/07/07 11:07:56;;;;;;;3.43;2.63;;;37.50;38.20;;;;;;5064381;28;20531;-65
2021/07/07 11:10:23;;;;;;;3.70;2.00;;;37.60;36.90;;;;;;5067671;28;20217;-65
2021/07/07 11:12:54;;;;;;;3.83;2.13;;;37.40;37.40;;;;;;5063870;28;20303;-65
2021/07/07 11:15:24;;;;;;;4.63;2.57;;;37.20;36.50;;;;;;5064537;28;20210;-65
2021/07/07 11:17:52;;;;;;;3.73;2.50;;;37.10;37.00;;;;;;5066172;28;20303;-65
2021/07/07 11:20:29;;;;;;;5.30;2.20;;;37.10;37.50;;;;;;5061766;28;20207;-65
2021/07/07 11:23:05;;;;;;;2.40;1.97;;;37.30;36.80;;;;;;5066328;28;20217;-65
2021/07/07 11:25:37;;;;;;;4.83;2.17;;;37.30;36.80;;;;;;5065828;28;20225;-65
2021/07/07 11:28:07;;;;;;;2.50;2.30;;;37.50;37.00;;;;;;5063781;28;20299;-65
2021/07/07 11:30:34;;;;;;;4.83;2.20;;;37.60;37.10;;;;;;5063758;28;20219;-65
2021/07/07 11:33:05;;;;;;;3.57;2.27;;;37.60;36.50;;;;;;5066005;28;20265;-65
2021/07/07 11:35:35;;;;;;;4.60;2.47;;;37.60;36.90;;;;;;5064810;28;20211;-65
2021/07/07 11:38:02;;;;;;;2.70;2.50;;;37.70;37.60;;;;;;5063241;28;20221;-65
2021/07/07 11:40:31;;;;;;;5.03;2.50;;;37.80;35.90;;;;;;5065386;28;20215;-65
2021/07/07 11:43:10;;;;;;;4.37;2.20;;;37.60;35.60;;;;;;5065348;28;20221;-65
2021/07/07 11:45:44;;;;;;;3.20;1.90;;;37.40;35.00;;;;;;5064180;28;20894;-65
2021/07/07 11:48:28;;;;;;;3.97;1.83;;;37.10;35.90;;;;;;5062988;28;20564;-65
2021/07/07 11:51:06;;;;;;;2.80;2.10;;;37.10;35.90;;;;;;5062342;28;20743;-65
2021/07/07 11:53:47;;;;;;;5.43;2.03;;;37.20;36.10;;;;;;5065368;28;20236;-65
2021/07/07 11:56:19;;;;;;;2.80;1.70;;;37.40;36.70;;;;;;5061782;28;20728;-65
2021/07/07 11:58:50;;;;;;;4.90;2.33;;;37.40;35.70;;;;;;5065821;28;20205;-65
2021/07/07 12:01:27;;;;;;;3.43;2.37;;;37.40;36.40;;;;;;5065827;28;20209;-65
2021/07/07 12:04:06;;;;;;;4.03;1.97;;;37.50;36.30;;;;;;5061643;28;20610;-65
2021/07/07 12:06:38;;;;;;;3.00;1.97;;;37.50;35.60;;;;;;5062744;28;20214;-65
2021/07/07 12:09:16;;;;;;;2.60;2.00;;;37.50;35.60;;;;;;5063780;28;21345;-65
2021/07/07 12:12:02;;;;;;;2.10;1.83;;;37.60;35.20;;;;;;5063346;28;20232;-65
2021/07/07 12:14:38;;;;;;;2.53;1.90;;;37.80;35.70;;;;;;5063244;28;20291;-65
2021/07/07 12:17:06;;;;;;;2.57;1.77;;;38.10;34.90;;;;;;5062218;28;20244;-65
2021/07/07 12:19:33;;;;;;;3.17;1.93;;;38.30;34.00;;;;;;5064653;28;20659;-65
2021/07/07 12:22:03;;;;;;;4.43;2.03;;;38.20;33.10;;;;;;5062615;28;20210;-65
2021/07/07 12:24:35;;;;;;;3.20;2.00;;;38.10;33.80;;;;;;5062162;28;20225;-65
2021/07/07 12:27:05;;;;;;;2.53;1.57;;;37.80;34.50;;;;;;5063336;28;20235;-65
2021/07/07 12:29:36;;;;;;;3.10;1.90;;;37.70;34.20;;;;;;5062226;28;20206;-65
2021/07/07 12:32:07;;;;;;;2.73;1.60;;;37.50;34.80;;;;;;5063402;28;20214;-65
2021/07/07 12:34:49;;;;;;;2.70;1.90;;;37.40;35.20;;;;;;5061371;28;20245;-65
2021/07/07 12:37:17;;;;;;;1.80;1.70;;;37.40;35.20;;;;;;5060980;28;20255;-65
2021/07/07 12:39:53;;;;;;;3.17;2.07;;;37.60;35.20;;;;;;5062015;28;20211;-65
2021/07/07 12:42:31;;;;;;;3.80;2.03;;;37.60;34.40;;;;;;5060672;28;20217;-65
2021/07/07 12:45:15;;;;;;;3.20;1.90;;;37.60;35.40;;;;;;5063505;28;20639;-65
2021/07/07 12:48:01;;;;;;;4.63;2.47;;;37.60;35.20;;;;;;5063484;28;20597;-65
2021/07/07 12:50:34;;;;;;;3.37;1.90;;;37.60;34.20;;;;;;5058941;28;20210;-65
2021/07/07 12:53:01;;;;;;;4.33;1.60;;;37.50;34.10;;;;;;5061451;28;20234;-65
2021/07/07 12:55:29;;;;;;;3.53;1.83;;;37.40;34.30;;;;;;5059713;28;20214;-65
2021/07/07 12:58:11;;;;;;;2.10;1.93;;;37.40;34.80;;;;;;5064096;28;20214;-65